createdAt,value
2018-09-15T00:00:36.272Z,90.20
2018-09-15T00:03:03.752Z,90.90
2018-09-15T00:05:31.136Z,91.30
2018-09-15T00:07:58.680Z,90.90
2018-09-15T00:10:26.118Z,91.40
2018-09-15T00:12:53.582Z,91.60
2018-09-15T00:15:21.025Z,91.40
2018-09-15T00:17:48.819Z,91.80
2018-09-15T00:20:16.325Z,91.80
2018-09-15T00:22:43.933Z,91.80
2018-09-15T00:25:11.433Z,92.00
2018-09-15T00:27:38.845Z,91.80
2018-09-15T00:30:06.280Z,91.90
2018-09-15T00:32:33.794Z,91.70
2018-09-15T00:35:01.280Z,91.60
2018-09-15T00:37:28.761Z,91.40
2018-09-15T00:39:56.217Z,91.30
2018-09-15T00:42:23.632Z,91.60
2018-09-15T00:44:51.065Z,90.70
2018-09-15T00:47:18.480Z,90.80
2018-09-15T00:49:45.988Z,90.50
2018-09-15T00:52:13.422Z,90.90
2018-09-15T00:54:40.914Z,91.40
2018-09-15T00:57:08.350Z,91.90
2018-09-15T00:59:35.779Z,92.00
2018-09-15T01:02:03.344Z,91.80
2018-09-15T01:04:30.796Z,90.70
2018-09-15T01:06:58.232Z,90.60
2018-09-15T01:09:25.668Z,91.10
2018-09-15T01:11:53.242Z,90.50
2018-09-15T01:14:20.822Z,90.20
2018-09-15T01:16:48.153Z,90.30
2018-09-15T01:19:15.676Z,90.60
2018-09-15T01:21:43.097Z,90.50
2018-09-15T01:24:11.048Z,91.50
2018-09-15T01:26:38.508Z,91.20
2018-09-15T01:29:05.984Z,90.50
2018-09-15T01:31:33.386Z,91.40
2018-09-15T01:34:00.830Z,90.70
2018-09-15T01:36:28.340Z,91.20
2018-09-15T01:38:55.788Z,91.50
2018-09-15T01:41:23.268Z,91.60
2018-09-15T01:43:50.703Z,92.10
2018-09-15T01:46:18.159Z,92.30
2018-09-15T01:48:45.599Z,92.20
2018-09-15T01:51:13.149Z,92.40
2018-09-15T01:53:40.903Z,92.50
2018-09-15T01:56:08.529Z,92.50
2018-09-15T01:58:36.071Z,92.60
2018-09-15T02:01:03.862Z,92.70
2018-09-15T02:03:31.325Z,93.00
2018-09-15T02:05:58.891Z,93.90
2018-09-15T02:08:26.364Z,93.50
2018-09-15T02:10:53.834Z,93.40
2018-09-15T02:13:21.972Z,93.80
2018-09-15T02:15:49.404Z,94.00
2018-09-15T02:18:16.865Z,94.60
2018-09-15T02:20:44.381Z,95.00
2018-09-15T02:23:11.819Z,95.20
2018-09-15T02:25:39.273Z,95.40
2018-09-15T02:28:06.711Z,95.30
2018-09-15T02:30:34.156Z,95.50
2018-09-15T02:33:01.582Z,96.00
2018-09-15T02:35:29.021Z,96.00
2018-09-15T02:37:56.512Z,96.10
2018-09-15T02:40:23.929Z,96.00
2018-09-15T02:42:51.356Z,95.90
2018-09-15T02:45:18.923Z,95.90
2018-09-15T02:47:46.364Z,96.10
2018-09-15T02:50:13.796Z,96.40
2018-09-15T02:52:41.266Z,96.40
2018-09-15T02:55:08.808Z,96.60
2018-09-15T02:57:36.255Z,97.20
2018-09-15T03:00:03.680Z,97.40
2018-09-15T03:02:31.264Z,97.40
2018-09-15T03:04:58.709Z,97.50
2018-09-15T03:07:27.215Z,97.30
2018-09-15T03:09:54.677Z,97.30
2018-09-15T03:12:22.237Z,97.40
2018-09-15T03:14:49.884Z,97.60
2018-09-15T03:17:17.323Z,98.00
2018-09-15T03:19:44.772Z,98.50
2018-09-15T03:22:12.208Z,98.90
2018-09-15T03:24:40.288Z,98.90
2018-09-15T03:27:07.721Z,98.90
2018-09-15T03:29:35.327Z,98.90
2018-09-15T03:32:02.766Z,98.90
2018-09-15T03:34:30.356Z,99.00
2018-09-15T03:36:57.812Z,99.20
2018-09-15T03:39:25.228Z,99.20
2018-09-15T03:41:52.737Z,99.50
2018-09-15T03:44:20.111Z,99.40
2018-09-15T03:46:47.611Z,99.60
2018-09-15T03:49:15.027Z,99.90
2018-09-15T03:51:42.479Z,99.90
2018-09-15T03:54:12.736Z,99.60
2018-09-15T03:56:40.344Z,99.70
2018-09-15T03:59:07.785Z,99.60
2018-09-15T04:01:35.297Z,99.70
2018-09-15T04:04:02.743Z,99.90
2018-09-15T04:06:30.199Z,99.90
2018-09-15T04:08:57.727Z,99.90
2018-09-15T04:11:25.194Z,99.90
2018-09-15T04:13:52.644Z,99.90
2018-09-15T04:16:20.111Z,99.90
2018-09-15T04:18:47.609Z,99.90
2018-09-15T04:21:15.037Z,99.90
2018-09-15T04:23:42.480Z,99.90
2018-09-15T04:26:09.980Z,99.90
2018-09-15T04:28:37.464Z,99.90
2018-09-15T04:31:04.876Z,99.90
2018-09-15T04:33:32.359Z,99.90
2018-09-15T04:35:59.808Z,99.90
2018-09-15T04:38:27.252Z,99.90
2018-09-15T04:40:56.124Z,99.90
2018-09-15T04:43:23.584Z,99.90
2018-09-15T04:45:51.066Z,99.90
2018-09-15T04:48:21.897Z,99.90
2018-09-15T04:50:49.480Z,99.90
2018-09-15T04:53:17.037Z,99.90
2018-09-15T04:55:45.629Z,99.90
2018-09-15T04:58:13.280Z,99.90
2018-09-15T05:00:40.717Z,99.90
2018-09-15T05:03:08.181Z,99.90
2018-09-15T05:05:35.620Z,99.90
2018-09-15T05:08:03.140Z,99.90
2018-09-15T05:10:30.568Z,99.90
2018-09-15T05:12:58.232Z,99.90
2018-09-15T05:15:25.637Z,99.90
2018-09-15T05:17:54.305Z,99.90
2018-09-15T05:20:21.742Z,99.90
2018-09-15T05:22:49.175Z,99.90
2018-09-15T05:25:16.591Z,99.90
2018-09-15T05:27:44.088Z,99.90
2018-09-15T05:30:11.575Z,99.90
2018-09-15T05:32:39.024Z,99.90
2018-09-15T05:35:06.458Z,99.90
2018-09-15T05:37:34.038Z,99.90
2018-09-15T05:40:01.618Z,99.90
2018-09-15T05:42:28.992Z,99.90
2018-09-15T05:44:56.461Z,99.90
2018-09-15T05:47:24.101Z,99.90
2018-09-15T05:49:51.735Z,99.90
2018-09-15T05:52:19.266Z,99.90
2018-09-15T05:54:46.675Z,99.90
2018-09-15T05:57:14.242Z,99.90
2018-09-15T05:59:41.662Z,99.90
2018-09-15T06:02:09.261Z,99.90
2018-09-15T06:04:36.909Z,99.90
2018-09-15T06:07:05.412Z,99.90
2018-09-15T06:09:32.840Z,99.90
2018-09-15T06:12:00.304Z,99.90
2018-09-15T06:14:27.874Z,99.90
2018-09-15T06:16:55.388Z,99.90
2018-09-15T06:19:22.825Z,99.90
2018-09-15T06:21:50.465Z,99.90
2018-09-15T06:24:17.896Z,99.90
2018-09-15T06:26:48.612Z,99.90
2018-09-15T06:29:16.168Z,99.90
2018-09-15T06:31:43.759Z,99.90
2018-09-15T06:34:11.249Z,99.90
2018-09-15T06:36:38.637Z,99.90
2018-09-15T06:39:07.231Z,99.90
2018-09-15T06:41:34.764Z,99.90
2018-09-15T06:44:02.252Z,99.90
2018-09-15T06:46:29.741Z,99.90
2018-09-15T06:48:57.168Z,99.90
2018-09-15T06:51:24.706Z,99.90
2018-09-15T06:53:52.146Z,99.90
2018-09-15T06:56:19.545Z,99.90
2018-09-15T06:58:47.012Z,99.90
2018-09-15T07:01:14.548Z,99.90
2018-09-15T07:03:42.146Z,99.90
2018-09-15T07:06:09.722Z,99.60
2018-09-15T07:08:37.410Z,99.90
2018-09-15T07:11:06.376Z,99.90
2018-09-15T07:13:33.824Z,99.90
2018-09-15T07:16:01.244Z,99.20
2018-09-15T07:18:28.828Z,99.20
2018-09-15T07:20:56.451Z,99.00
2018-09-15T07:23:23.883Z,98.10
2018-09-15T07:25:52.569Z,99.00
2018-09-15T07:28:20.101Z,97.00
2018-09-15T07:30:47.607Z,96.40
2018-09-15T07:33:15.047Z,95.70
2018-09-15T07:35:42.563Z,94.10
2018-09-15T07:38:10.108Z,92.10
2018-09-15T07:40:37.648Z,91.10
2018-09-15T07:43:05.392Z,91.50
2018-09-15T07:45:33.960Z,87.80
2018-09-15T07:48:01.400Z,84.50
2018-09-15T07:50:28.885Z,83.10
2018-09-15T07:52:56.300Z,81.90
2018-09-15T07:55:23.728Z,81.00
2018-09-15T07:57:51.352Z,83.50
2018-09-15T08:00:18.652Z,78.60
2018-09-15T08:02:46.102Z,78.60
2018-09-15T08:05:13.545Z,75.90
2018-09-15T08:07:41.001Z,76.40
2018-09-15T08:10:08.445Z,75.70
2018-09-15T08:12:35.943Z,76.10
2018-09-15T08:15:03.437Z,76.80
2018-09-15T08:17:31.996Z,77.00
2018-09-15T08:19:59.425Z,76.80
2018-09-15T08:22:26.844Z,76.00
2018-09-15T08:24:54.330Z,77.30
2018-09-15T08:27:21.833Z,75.10
2018-09-15T08:29:49.294Z,75.40
2018-09-15T08:32:16.807Z,72.50
2018-09-15T08:34:44.296Z,74.90
2018-09-15T08:37:11.720Z,73.20
2018-09-15T08:39:39.149Z,72.80
2018-09-15T08:42:06.633Z,71.50
2018-09-15T08:44:34.063Z,70.90
2018-09-15T08:47:01.521Z,70.80
2018-09-15T08:49:28.973Z,70.90
2018-09-15T08:51:56.532Z,72.20
2018-09-15T08:54:23.971Z,74.10
2018-09-15T08:56:51.390Z,68.80
2018-09-15T08:59:18.841Z,70.00
2018-09-15T09:01:46.376Z,69.70
2018-09-15T09:04:13.809Z,73.70
2018-09-15T09:06:41.383Z,66.50
2018-09-15T09:09:09.897Z,69.70
2018-09-15T09:11:37.339Z,70.10
2018-09-15T09:14:04.842Z,66.80
2018-09-15T09:16:32.332Z,71.50
2018-09-15T09:18:59.756Z,66.80
2018-09-15T09:21:29.388Z,66.60
2018-09-15T09:23:57.051Z,66.50
2018-09-15T09:26:24.621Z,64.10
2018-09-15T09:28:52.039Z,63.50
2018-09-15T09:31:20.636Z,64.30
2018-09-15T09:33:48.204Z,64.90
2018-09-15T09:36:16.796Z,65.10
2018-09-15T09:38:51.094Z,63.80
2018-09-15T09:41:18.672Z,64.60
2018-09-15T09:43:50.333Z,67.90
2018-09-15T09:46:18.420Z,63.50
2018-09-15T09:48:45.895Z,62.80
2018-09-15T09:51:13.356Z,63.90
2018-09-15T09:53:43.036Z,64.60
2018-09-15T09:56:10.525Z,67.70
2018-09-15T09:58:39.149Z,61.70
2018-09-15T10:01:12.267Z,65.20
2018-09-15T10:03:39.696Z,63.10
2018-09-15T10:06:07.313Z,63.70
2018-09-15T10:08:34.802Z,59.90
2018-09-15T10:11:02.380Z,58.70
2018-09-15T10:13:34.112Z,58.10
2018-09-15T10:16:02.855Z,59.70
2018-09-15T10:18:32.295Z,59.60
2018-09-15T10:20:59.847Z,56.00
2018-09-15T10:23:30.665Z,56.40
2018-09-15T10:25:58.232Z,56.60
2018-09-15T10:28:25.663Z,55.20
2018-09-15T10:30:53.187Z,54.40
2018-09-15T10:33:20.644Z,54.90
2018-09-15T10:35:48.337Z,57.10
2018-09-15T10:38:15.845Z,55.90
2018-09-15T10:40:43.290Z,54.40
2018-09-15T10:43:10.745Z,56.60
2018-09-15T10:45:38.179Z,54.90
2018-09-15T10:48:09.043Z,55.80
2018-09-15T10:50:36.618Z,55.40
2018-09-15T10:53:04.078Z,56.20
2018-09-15T10:55:31.536Z,53.90
2018-09-15T10:58:01.065Z,54.20
2018-09-15T11:00:28.920Z,56.90
2018-09-15T11:02:56.297Z,55.60
2018-09-15T11:05:23.733Z,57.30
2018-09-15T11:07:51.256Z,55.10
2018-09-15T11:10:18.748Z,55.90
2018-09-15T11:12:46.273Z,53.70
2018-09-15T11:15:13.745Z,54.40
2018-09-15T11:17:41.236Z,58.20
2018-09-15T11:20:08.772Z,59.00
2018-09-15T11:22:36.364Z,56.10
2018-09-15T11:25:03.904Z,54.10
2018-09-15T11:27:31.338Z,54.00
2018-09-15T11:29:58.803Z,55.60
2018-09-15T11:32:26.266Z,52.80
2018-09-15T11:34:53.908Z,53.10
2018-09-15T11:37:21.360Z,56.90
2018-09-15T11:39:48.859Z,52.50
2018-09-15T11:42:16.292Z,53.20
2018-09-15T11:44:43.771Z,54.50
2018-09-15T11:47:11.220Z,53.60
2018-09-15T11:49:38.720Z,55.00
2018-09-15T11:52:06.233Z,52.20
2018-09-15T11:54:33.687Z,54.70
2018-09-15T11:57:11.007Z,52.60
2018-09-15T11:59:38.447Z,53.10
2018-09-15T12:02:06.046Z,55.10
2018-09-15T12:04:33.499Z,53.20
2018-09-15T12:07:01.091Z,54.20
2018-09-15T12:09:28.519Z,55.10
2018-09-15T12:12:09.315Z,54.00
2018-09-15T12:14:36.739Z,55.00
2018-09-15T12:17:04.177Z,56.90
2018-09-15T12:19:31.620Z,54.10
2018-09-15T12:21:59.088Z,57.30
2018-09-15T12:24:26.724Z,54.40
2018-09-15T12:26:54.208Z,54.10
2018-09-15T12:29:21.704Z,57.40
2018-09-15T12:31:49.133Z,55.50
2018-09-15T12:34:16.688Z,56.70
2018-09-15T12:36:44.127Z,55.70
2018-09-15T12:39:11.608Z,57.10
2018-09-15T12:41:39.164Z,56.60
2018-09-15T12:44:06.647Z,57.50
2018-09-15T12:46:39.792Z,58.00
2018-09-15T12:49:07.287Z,56.70
2018-09-15T12:51:34.808Z,56.30
2018-09-15T12:54:02.338Z,57.60
2018-09-15T12:56:29.817Z,55.60
2018-09-15T12:58:57.344Z,57.10
2018-09-15T13:01:25.012Z,56.10
2018-09-15T13:03:52.592Z,57.30
2018-09-15T13:06:25.917Z,59.70
2018-09-15T13:08:53.396Z,58.10
2018-09-15T13:11:20.825Z,58.20
2018-09-15T13:13:48.363Z,57.30
2018-09-15T13:16:15.843Z,58.80
2018-09-15T13:18:43.344Z,56.10
2018-09-15T13:21:10.804Z,57.90
2018-09-15T13:23:38.453Z,57.60
2018-09-15T13:26:05.932Z,58.70
2018-09-15T13:28:33.453Z,58.60
2018-09-15T13:31:00.978Z,58.10
2018-09-15T13:33:28.481Z,57.70
2018-09-15T13:35:55.985Z,54.90
2018-09-15T13:38:23.435Z,55.20
2018-09-15T13:40:50.897Z,55.90
2018-09-15T13:43:18.371Z,55.20
2018-09-15T13:45:45.832Z,56.40
2018-09-15T13:48:13.399Z,56.20
2018-09-15T13:50:40.842Z,57.70
2018-09-15T13:53:08.271Z,55.30
2018-09-15T13:55:35.820Z,55.50
2018-09-15T13:58:03.257Z,56.80
2018-09-15T14:00:31.744Z,56.00
2018-09-15T14:02:59.173Z,56.70
2018-09-15T14:05:26.841Z,56.60
2018-09-15T14:07:54.308Z,57.00
2018-09-15T14:10:21.767Z,58.20
2018-09-15T14:12:49.255Z,58.00
2018-09-15T14:15:16.756Z,58.50
2018-09-15T14:17:44.232Z,58.20
2018-09-15T14:20:11.672Z,56.80
2018-09-15T14:22:39.284Z,58.80
2018-09-15T14:25:06.736Z,57.00
2018-09-15T14:27:34.216Z,57.80
2018-09-15T14:30:01.639Z,60.30
2018-09-15T14:32:29.136Z,58.50
2018-09-15T14:34:56.768Z,59.70
2018-09-15T14:37:24.239Z,61.60
2018-09-15T14:39:51.821Z,57.40
2018-09-15T14:42:25.231Z,57.50
2018-09-15T14:44:53.834Z,58.70
2018-09-15T14:47:21.383Z,59.00
2018-09-15T14:49:48.856Z,58.30
2018-09-15T14:52:16.482Z,58.70
2018-09-15T14:54:43.944Z,58.30
2018-09-15T14:57:12.476Z,58.30
2018-09-15T14:59:40.095Z,57.90
2018-09-15T15:02:07.572Z,58.70
2018-09-15T15:04:35.075Z,57.60
2018-09-15T15:07:02.560Z,60.20
2018-09-15T15:09:30.115Z,61.90
2018-09-15T15:11:57.870Z,61.00
2018-09-15T15:14:25.331Z,60.70
2018-09-15T15:16:53.808Z,58.60
2018-09-15T15:19:21.316Z,58.10
2018-09-15T15:21:50.926Z,59.90
2018-09-15T15:24:18.421Z,60.30
2018-09-15T15:26:46.001Z,60.10
2018-09-15T15:29:13.500Z,60.60
2018-09-15T15:31:43.099Z,61.10
2018-09-15T15:34:10.633Z,61.90
2018-09-15T15:36:38.139Z,61.00
2018-09-15T15:39:06.741Z,61.40
2018-09-15T15:41:34.289Z,61.40
2018-09-15T15:44:01.760Z,61.80
2018-09-15T15:46:29.343Z,61.40
2018-09-15T15:48:56.792Z,62.80
2018-09-15T15:51:24.325Z,62.90
2018-09-15T15:53:51.764Z,62.70
2018-09-15T15:56:19.209Z,63.40
2018-09-15T15:58:46.866Z,63.60
2018-09-15T16:01:17.943Z,62.70
2018-09-15T16:03:46.471Z,64.00
2018-09-15T16:06:13.911Z,63.70
2018-09-15T16:08:41.524Z,65.10
2018-09-15T16:11:08.971Z,63.60
2018-09-15T16:13:36.494Z,65.00
2018-09-15T16:16:03.908Z,64.40
2018-09-15T16:18:31.384Z,64.90
2018-09-15T16:20:58.980Z,65.90
2018-09-15T16:23:26.424Z,66.80
2018-09-15T16:25:53.974Z,66.00
2018-09-15T16:28:21.561Z,67.50
2018-09-15T16:30:49.329Z,66.80
2018-09-15T16:33:16.900Z,68.60
2018-09-15T16:35:44.368Z,66.60
2018-09-15T16:38:11.875Z,67.20
2018-09-15T16:40:39.374Z,66.40
2018-09-15T16:43:06.800Z,66.30
2018-09-15T16:45:34.870Z,66.80
2018-09-15T16:48:02.660Z,64.40
2018-09-15T16:50:30.157Z,64.40
2018-09-15T16:52:57.760Z,64.30
2018-09-15T16:55:25.301Z,63.50
2018-09-15T16:57:52.848Z,64.40
2018-09-15T17:00:20.292Z,72.10
2018-09-15T17:02:53.624Z,70.50
2018-09-15T17:05:21.271Z,70.30
2018-09-15T17:07:49.589Z,65.70
2018-09-15T17:10:17.102Z,66.20
2018-09-15T17:12:44.553Z,65.00
2018-09-15T17:15:12.066Z,64.60
2018-09-15T17:17:39.549Z,64.60
2018-09-15T17:20:07.071Z,64.30
2018-09-15T17:22:34.740Z,64.40
2018-09-15T17:25:02.096Z,64.80
2018-09-15T17:27:29.518Z,64.40
2018-09-15T17:29:57.084Z,65.00
2018-09-15T17:32:24.512Z,65.40
2018-09-15T17:34:52.092Z,64.50
2018-09-15T17:37:19.563Z,64.90
2018-09-15T17:39:47.167Z,64.80
2018-09-15T17:42:14.560Z,65.50
2018-09-15T17:44:42.029Z,65.70
2018-09-15T17:47:09.466Z,66.70
2018-09-15T17:49:36.956Z,67.00
2018-09-15T17:52:04.400Z,67.80
2018-09-15T17:54:31.857Z,69.10
2018-09-15T17:56:59.473Z,69.30
2018-09-15T17:59:26.893Z,69.70
2018-09-15T18:01:54.343Z,71.10
2018-09-15T18:04:21.817Z,72.20
2018-09-15T18:06:49.237Z,71.70
2018-09-15T18:09:16.681Z,72.00
2018-09-15T18:11:44.157Z,71.60
2018-09-15T18:14:11.791Z,72.00
2018-09-15T18:16:39.268Z,74.00
2018-09-15T18:19:06.811Z,74.90
2018-09-15T18:21:34.335Z,74.50
2018-09-15T18:24:01.778Z,74.90
2018-09-15T18:26:29.271Z,76.60
2018-09-15T18:28:56.815Z,77.00
2018-09-15T18:31:24.328Z,76.60
2018-09-15T18:33:51.902Z,76.10
2018-09-15T18:36:19.330Z,75.30
2018-09-15T18:38:46.863Z,75.40
2018-09-15T18:41:14.339Z,76.20
2018-09-15T18:43:41.843Z,76.10
2018-09-15T18:46:09.437Z,76.80
2018-09-15T18:48:36.939Z,77.90
2018-09-15T18:51:04.372Z,79.30
2018-09-15T18:53:31.858Z,79.50
2018-09-15T18:55:59.353Z,80.30
2018-09-15T18:58:26.840Z,80.70
2018-09-15T19:00:54.276Z,81.60
2018-09-15T19:03:21.683Z,82.00
2018-09-15T19:05:49.169Z,81.60
2018-09-15T19:08:16.804Z,82.80
2018-09-15T19:10:44.234Z,83.00
2018-09-15T19:13:12.376Z,84.10
2018-09-15T19:15:39.790Z,84.60
2018-09-15T19:18:07.218Z,85.20
2018-09-15T19:20:34.644Z,85.00
2018-09-15T19:23:02.177Z,85.50
2018-09-15T19:25:29.780Z,85.70
2018-09-15T19:27:57.322Z,85.60
2018-09-15T19:30:24.720Z,85.80
2018-09-15T19:32:52.235Z,85.60
2018-09-15T19:35:19.643Z,85.10
2018-09-15T19:37:47.121Z,85.70
2018-09-15T19:40:14.643Z,86.30
2018-09-15T19:42:42.122Z,86.30
2018-09-15T19:45:09.561Z,86.60
2018-09-15T19:47:37.075Z,86.30
2018-09-15T19:50:04.525Z,85.90
2018-09-15T19:52:31.949Z,85.80
2018-09-15T19:54:59.369Z,85.90
2018-09-15T19:57:26.907Z,85.80
2018-09-15T19:59:54.414Z,86.60
2018-09-15T20:02:21.955Z,86.70
2018-09-15T20:04:49.547Z,86.80
2018-09-15T20:07:16.943Z,87.70
2018-09-15T20:09:44.395Z,87.80
2018-09-15T20:12:11.840Z,87.90
2018-09-15T20:14:39.274Z,88.80
2018-09-15T20:17:06.708Z,89.60
2018-09-15T20:19:33.660Z,90.00
2018-09-15T20:22:01.149Z,89.60
2018-09-15T20:24:28.566Z,90.00
2018-09-15T20:26:56.088Z,90.40
2018-09-15T20:29:23.547Z,90.80
2018-09-15T20:31:50.963Z,90.50
2018-09-15T20:34:18.476Z,90.50
2018-09-15T20:36:45.979Z,90.60
2018-09-15T20:39:13.523Z,90.80
2018-09-15T20:41:41.028Z,91.00
2018-09-15T20:44:08.740Z,91.10
2018-09-15T20:46:36.236Z,91.20
2018-09-15T20:49:03.781Z,91.30
2018-09-15T20:51:31.179Z,91.70
2018-09-15T20:53:58.651Z,92.30
2018-09-15T20:56:26.146Z,92.40
2018-09-15T20:58:53.563Z,92.50
2018-09-15T21:01:20.981Z,92.40
2018-09-15T21:03:48.430Z,92.60
2018-09-15T21:06:15.860Z,93.10
2018-09-15T21:08:43.380Z,93.10
2018-09-15T21:11:10.935Z,93.10
2018-09-15T21:13:39.132Z,92.90
2018-09-15T21:16:06.680Z,93.40
2018-09-15T21:18:34.099Z,94.00
2018-09-15T21:21:01.583Z,93.90
2018-09-15T21:23:29.027Z,94.30
2018-09-15T21:25:56.546Z,94.40
2018-09-15T21:28:24.096Z,94.70
2018-09-15T21:30:51.785Z,94.70
2018-09-15T21:33:19.247Z,95.00
2018-09-15T21:35:46.639Z,95.30
2018-09-15T21:38:14.111Z,95.60
2018-09-15T21:40:41.546Z,95.50
2018-09-15T21:43:09.017Z,95.70
2018-09-15T21:45:36.524Z,95.40
2018-09-15T21:48:04.067Z,95.80
2018-09-15T21:50:31.492Z,96.10
2018-09-15T21:52:58.929Z,95.90
2018-09-15T21:55:26.387Z,95.80
2018-09-15T21:57:53.808Z,96.20
2018-09-15T22:00:21.268Z,96.10
2018-09-15T22:02:48.699Z,96.20
2018-09-15T22:05:16.155Z,96.30
2018-09-15T22:07:43.655Z,96.40
2018-09-15T22:10:11.123Z,96.60
2018-09-15T22:12:38.499Z,96.60
2018-09-15T22:15:10.239Z,97.00
2018-09-15T22:17:37.697Z,97.00
2018-09-15T22:20:05.263Z,97.10
2018-09-15T22:22:32.690Z,97.30
2018-09-15T22:25:00.110Z,97.50
2018-09-15T22:27:27.524Z,97.60
2018-09-15T22:29:54.953Z,98.10
2018-09-15T22:32:22.430Z,97.70
2018-09-15T22:34:49.898Z,97.80
2018-09-15T22:37:17.412Z,98.00
2018-09-15T22:39:44.915Z,98.20
2018-09-15T22:42:12.331Z,98.60
2018-09-15T22:44:39.736Z,99.00
2018-09-15T22:47:07.216Z,99.80
2018-09-15T22:49:34.736Z,99.90
2018-09-15T22:52:02.180Z,99.90
2018-09-15T22:54:29.643Z,99.90
2018-09-15T22:56:57.076Z,99.90
2018-09-15T22:59:24.487Z,99.90
2018-09-15T23:01:51.937Z,99.90
2018-09-15T23:04:19.392Z,99.90
2018-09-15T23:06:46.941Z,99.90
2018-09-15T23:09:14.347Z,99.90
2018-09-15T23:11:41.859Z,99.90
2018-09-15T23:14:09.288Z,99.90
2018-09-15T23:16:36.812Z,99.90
2018-09-15T23:19:04.286Z,99.90
2018-09-15T23:21:31.967Z,99.90
2018-09-15T23:23:59.623Z,99.90
2018-09-15T23:26:27.042Z,99.90
2018-09-15T23:28:54.568Z,99.90
2018-09-15T23:31:22.063Z,99.90
2018-09-15T23:33:49.500Z,99.90
2018-09-15T23:36:16.915Z,99.90
2018-09-15T23:38:44.367Z,99.90
2018-09-15T23:41:11.851Z,99.90
2018-09-15T23:43:39.583Z,99.90
2018-09-15T23:46:07.296Z,99.90
2018-09-15T23:48:34.734Z,99.90
2018-09-15T23:51:02.160Z,99.90
2018-09-15T23:53:29.585Z,99.90
2018-09-15T23:55:57.104Z,99.90
2018-09-15T23:58:24.685Z,99.90
